Time;durP1;ratioP1;P1;durP2;ratioP2;P2;SDS_P1;SDS_P2;PMS_P1;PMS_P2;Temp;Humidity;BMP_temperature;BMP_pressure;BME280_temperature;BME280_humidity;BME280_pressure;Samples;Min_cycle;Max_cycle;Signal;HPM_P1;HPM_P2
2021/11/15 00:00:00;;;;;;;34.40;10.60;;;;;;;;;;5048466;28;20471;-65
2021/11/15 00:02:29;;;;;;;23.55;9.98;;;;;;;;;;5045957;28;20049;-65
2021/11/15 00:04:57;;;;;;;31.42;10.60;;;;;;;;;;5045867;28;20056;-65
2021/11/15 00:07:27;;;;;;;31.13;10.60;;;;;;;;;;5045880;28;20585;-65
2021/11/15 00:09:55;;;;;;;29.92;10.43;;;;;;;;;;5059094;28;20052;-67
2021/11/15 00:12:24;;;;;;;27.13;10.88;;;;;;;;;;5044718;28;20135;-64
2021/11/15 00:14:52;;;;;;;30.00;9.30;;;;;;;;;;5041415;28;20075;-64
2021/11/15 00:17:22;;;;;;;30.13;9.95;;;;;;;;;;5048119;28;20057;-64
2021/11/15 00:19:51;;;;;;;29.52;10.75;;;;;;;;;;5050346;28;20054;-64
2021/11/15 00:22:19;;;;;;;31.05;10.73;;;;;;;;;;5045967;28;20049;-64
2021/11/15 00:24:49;;;;;;;28.58;10.30;;;;;;;;;;5048312;28;20483;-64
2021/11/15 00:27:17;;;;;;;28.77;9.60;;;;;;;;;;5048675;28;20083;-65
2021/11/15 00:29:45;;;;;;;29.75;10.95;;;;;;;;;;5047757;28;20049;-66
2021/11/15 00:32:14;;;;;;;30.17;10.63;;;;;;;;;;5047314;28;20496;-66
2021/11/15 00:34:43;;;;;;;39.25;11.23;;;;;;;;;;5047362;28;20128;-64
2021/11/15 00:37:11;;;;;;;27.35;10.68;;;;;;;;;;5033107;28;20044;-63
2021/11/15 00:39:39;;;;;;;30.02;11.70;;;;;;;;;;5047456;28;20087;-64
2021/11/15 00:42:09;;;;;;;29.73;11.18;;;;;;;;;;5043572;28;20050;-64
2021/11/15 00:44:38;;;;;;;27.95;11.80;;;;;;;;;;5035334;28;20037;-64
2021/11/15 00:47:06;;;;;;;26.17;10.70;;;;;;;;;;5044738;28;20139;-65
2021/11/15 00:49:34;;;;;;;27.23;10.80;;;;;;;;;;5052461;28;20128;-65
2021/11/15 00:52:03;;;;;;;30.85;11.77;;;;;;;;;;5045481;28;20151;-64
2021/11/15 00:54:31;;;;;;;30.30;11.65;;;;;;;;;;5048429;28;20128;-67
2021/11/15 00:56:59;;;;;;;29.65;11.18;;;;;;;;;;5046602;28;20120;-65
2021/11/15 00:59:31;;;;;;;33.22;12.50;;;;;;;;;;5053273;28;20204;-64
2021/11/15 01:02:00;;;;;;;24.95;10.75;;;;;;;;;;5045393;28;20149;-65
2021/11/15 01:04:28;;;;;;;28.42;9.70;;;;;;;;;;5055623;28;20048;-63
2021/11/15 01:06:57;;;;;;;33.35;11.32;;;;;;;;;;5047780;28;20140;-65
2021/11/15 01:09:25;;;;;;;27.80;10.15;;;;;;;;;;5046412;28;20041;-64
2021/11/15 01:11:54;;;;;;;28.65;9.73;;;;;;;;;;5043270;28;20128;-64
2021/11/15 01:14:23;;;;;;;28.60;10.80;;;;;;;;;;5049623;28;20048;-64
2021/11/15 01:16:52;;;;;;;33.40;10.63;;;;;;;;;;5042372;28;20580;-65
2021/11/15 01:19:21;;;;;;;29.17;9.90;;;;;;;;;;5041517;28;20131;-64
2021/11/15 01:21:49;;;;;;;27.75;9.98;;;;;;;;;;5048825;28;20052;-64
2021/11/15 01:24:17;;;;;;;31.77;11.40;;;;;;;;;;5047125;28;20132;-64
2021/11/15 01:26:46;;;;;;;29.05;10.40;;;;;;;;;;5047481;28;20045;-64
2021/11/15 01:29:14;;;;;;;27.05;9.77;;;;;;;;;;5047495;28;20127;-64
2021/11/15 01:31:42;;;;;;;33.33;9.68;;;;;;;;;;5046328;28;20136;-64
2021/11/15 01:34:15;;;;;;;27.42;10.25;;;;;;;;;;5050263;28;20171;-64
2021/11/15 01:36:43;;;;;;;32.08;11.02;;;;;;;;;;5040922;28;20065;-64
2021/11/15 01:39:11;;;;;;;24.90;9.10;;;;;;;;;;5041795;28;20131;-64
2021/11/15 01:41:40;;;;;;;35.35;11.05;;;;;;;;;;5049224;28;20041;-64
2021/11/15 01:44:08;;;;;;;27.52;10.15;;;;;;;;;;5050456;28;20048;-64
2021/11/15 01:46:36;;;;;;;28.60;10.07;;;;;;;;;;5038375;28;20072;-64
2021/11/15 01:49:05;;;;;;;27.50;10.35;;;;;;;;;;5051481;28;20084;-64
2021/11/15 01:51:34;;;;;;;29.65;10.43;;;;;;;;;;5049622;28;20132;-64
2021/11/15 01:54:03;;;;;;;25.17;10.63;;;;;;;;;;5049559;28;20060;-64
2021/11/15 01:56:31;;;;;;;30.27;10.00;;;;;;;;;;5049930;28;20497;-65
2021/11/15 01:59:01;;;;;;;27.80;10.02;;;;;;;;;;5050038;28;20507;-65
2021/11/15 02:01:30;;;;;;;29.77;10.40;;;;;;;;;;5051112;28;20049;-64
2021/11/15 02:03:59;;;;;;;29.40;10.43;;;;;;;;;;5048235;28;20033;-64
2021/11/15 02:06:27;;;;;;;26.33;9.48;;;;;;;;;;5044921;28;20083;-65
2021/11/15 02:08:59;;;;;;;30.67;9.65;;;;;;;;;;4688302;28;10000620;-65
2021/11/15 02:11:27;;;;;;;26.10;10.07;;;;;;;;;;694721;28;10001979;-65
2021/11/15 02:13:56;;;;;;;28.08;9.60;;;;;;;;;;5051198;28;20584;-65
2021/11/15 02:16:24;;;;;;;28.35;9.52;;;;;;;;;;5046139;28;20116;-65
2021/11/15 02:18:53;;;;;;;31.00;9.88;;;;;;;;;;5050559;28;20048;-65
2021/11/15 02:21:23;;;;;;;28.77;10.05;;;;;;;;;;5044467;28;20367;-64
2021/11/15 02:23:52;;;;;;;26.35;9.98;;;;;;;;;;5051031;28;20081;-65
2021/11/15 02:26:23;;;;;;;23.17;9.25;;;;;;;;;;5039623;28;21312;-65
2021/11/15 02:28:52;;;;;;;21.33;9.20;;;;;;;;;;5049570;28;20049;-64
2021/11/15 02:31:23;;;;;;;32.38;10.23;;;;;;;;;;5053112;28;20044;-65
2021/11/15 02:33:52;;;;;;;25.02;8.90;;;;;;;;;;5051104;28;20057;-64
2021/11/15 02:36:23;;;;;;;30.40;9.27;;;;;;;;;;5057147;28;20135;-65
2021/11/15 02:38:52;;;;;;;24.15;10.70;;;;;;;;;;5049963;28;20479;-64
2021/11/15 02:41:21;;;;;;;24.48;10.23;;;;;;;;;;5050795;28;20803;-65
2021/11/15 02:43:50;;;;;;;23.13;10.10;;;;;;;;;;5045765;28;20076;-64
2021/11/15 02:46:18;;;;;;;29.20;10.25;;;;;;;;;;5059326;28;20123;-64
2021/11/15 02:48:47;;;;;;;33.75;10.10;;;;;;;;;;5055022;28;20098;-65
2021/11/15 02:51:16;;;;;;;29.25;9.18;;;;;;;;;;5060909;28;20083;-64
2021/11/15 02:53:45;;;;;;;21.65;8.40;;;;;;;;;;5050144;28;20666;-64
2021/11/15 02:56:13;;;;;;;22.42;8.48;;;;;;;;;;5050681;28;20131;-64
2021/11/15 02:58:42;;;;;;;23.17;8.43;;;;;;;;;;5051119;28;20084;-64
2021/11/15 03:01:11;;;;;;;18.80;8.38;;;;;;;;;;5048586;28;20580;-64
2021/11/15 03:03:40;;;;;;;20.75;8.20;;;;;;;;;;5045235;28;20129;-65
2021/11/15 03:06:09;;;;;;;22.80;8.35;;;;;;;;;;5059551;28;20131;-65
2021/11/15 03:08:37;;;;;;;23.83;8.35;;;;;;;;;;5049874;28;20361;-65
2021/11/15 03:11:07;;;;;;;25.00;8.20;;;;;;;;;;5046921;28;20069;-64
2021/11/15 03:13:37;;;;;;;24.00;8.30;;;;;;;;;;5044712;28;20084;-65
2021/11/15 03:16:06;;;;;;;21.73;8.60;;;;;;;;;;5044398;28;20053;-64
2021/11/15 03:18:35;;;;;;;21.67;8.05;;;;;;;;;;5048444;28;20133;-65
2021/11/15 03:21:05;;;;;;;22.23;8.00;;;;;;;;;;5048994;28;20045;-65
2021/11/15 03:23:35;;;;;;;25.15;8.70;;;;;;;;;;5046860;28;20069;-64
2021/11/15 03:26:03;;;;;;;24.85;8.13;;;;;;;;;;5043916;28;20049;-65
2021/11/15 03:28:34;;;;;;;16.60;8.02;;;;;;;;;;5044031;28;20135;-65
2021/11/15 03:31:04;;;;;;;21.67;7.97;;;;;;;;;;5045964;28;20589;-64
2021/11/15 03:33:33;;;;;;;21.73;8.65;;;;;;;;;;5048074;28;20045;-65
2021/11/15 03:36:02;;;;;;;21.92;8.25;;;;;;;;;;5046511;28;20049;-65
2021/11/15 03:38:30;;;;;;;25.13;7.93;;;;;;;;;;5039741;28;20130;-66
2021/11/15 03:40:58;;;;;;;23.67;8.55;;;;;;;;;;5047929;28;20049;-66
2021/11/15 03:43:27;;;;;;;27.63;8.43;;;;;;;;;;5046273;28;20133;-65
2021/11/15 03:45:57;;;;;;;19.23;8.35;;;;;;;;;;5047076;28;20481;-64
2021/11/15 03:48:25;;;;;;;24.52;8.60;;;;;;;;;;5047939;28;20135;-64
2021/11/15 03:50:55;;;;;;;24.20;8.90;;;;;;;;;;5047170;28;20049;-65
2021/11/15 03:53:25;;;;;;;22.60;8.10;;;;;;;;;;5040152;28;20084;-65
2021/11/15 03:55:54;;;;;;;18.60;8.15;;;;;;;;;;5041609;28;20079;-64
2021/11/15 03:58:22;;;;;;;21.98;7.65;;;;;;;;;;5047592;28;20057;-65
2021/11/15 04:00:51;;;;;;;21.10;8.13;;;;;;;;;;5047345;28;20080;-67
2021/11/15 04:03:29;;;;;;;15.75;7.07;;;;;;;;;;5044614;28;20060;-65
2021/11/15 04:06:00;;;;;;;27.15;8.38;;;;;;;;;;5046290;28;20135;-65
2021/11/15 04:08:30;;;;;;;20.42;7.90;;;;;;;;;;5047001;28;20117;-66
2021/11/15 04:10:58;;;;;;;20.70;8.93;;;;;;;;;;5047316;28;20045;-64
2021/11/15 04:13:28;;;;;;;23.63;9.55;;;;;;;;;;5047305;28;20507;-66
2021/11/15 04:15:59;;;;;;;25.52;8.20;;;;;;;;;;5047191;28;20425;-65
2021/11/15 04:18:31;;;;;;;26.77;9.05;;;;;;;;;;5045950;28;20055;-65
2021/11/15 04:21:00;;;;;;;24.50;9.70;;;;;;;;;;5047706;28;20048;-65
2021/11/15 04:23:28;;;;;;;25.80;9.25;;;;;;;;;;5043471;28;20121;-65
2021/11/15 04:25:57;;;;;;;30.85;9.48;;;;;;;;;;5038733;28;20064;-65
2021/11/15 04:28:26;;;;;;;23.23;9.30;;;;;;;;;;5041984;28;20147;-64
2021/11/15 04:30:54;;;;;;;30.75;9.07;;;;;;;;;;5041572;28;20049;-64
2021/11/15 04:33:23;;;;;;;23.90;8.07;;;;;;;;;;5047073;28;20127;-65
2021/11/15 04:35:53;;;;;;;24.33;8.93;;;;;;;;;;5047735;28;20152;-65
2021/11/15 04:38:22;;;;;;;25.77;9.02;;;;;;;;;;5047947;28;20136;-64
2021/11/15 04:40:50;;;;;;;24.55;9.32;;;;;;;;;;5047538;28;20483;-65
2021/11/15 04:43:19;;;;;;;21.50;8.20;;;;;;;;;;5062615;28;20537;-65
2021/11/15 04:45:47;;;;;;;23.02;8.40;;;;;;;;;;5055721;28;20090;-65
2021/11/15 04:48:15;;;;;;;24.73;8.35;;;;;;;;;;5046970;28;20076;-64
2021/11/15 04:50:44;;;;;;;25.27;8.73;;;;;;;;;;5045028;28;20152;-65
2021/11/15 04:53:13;;;;;;;20.15;8.75;;;;;;;;;;5054385;28;20058;-65
2021/11/15 04:55:41;;;;;;;23.60;8.35;;;;;;;;;;5046667;28;20036;-65
2021/11/15 04:58:10;;;;;;;26.38;8.93;;;;;;;;;;5052905;28;20061;-64
2021/11/15 05:00:38;;;;;;;21.42;8.57;;;;;;;;;;5045360;28;20041;-66
2021/11/15 05:03:07;;;;;;;18.20;8.05;;;;;;;;;;5051801;28;20087;-64
2021/11/15 05:05:35;;;;;;;24.05;7.85;;;;;;;;;;5049623;28;20128;-64
2021/11/15 05:08:04;;;;;;;27.88;9.13;;;;;;;;;;5043740;28;20049;-65
2021/11/15 05:10:34;;;;;;;24.17;7.97;;;;;;;;;;5045741;28;20399;-65
2021/11/15 05:13:02;;;;;;;22.65;7.63;;;;;;;;;;5050352;28;20071;-65
2021/11/15 05:15:31;;;;;;;22.77;8.15;;;;;;;;;;5047445;28;20535;-67
2021/11/15 05:18:00;;;;;;;28.33;7.82;;;;;;;;;;5052862;28;20124;-64
2021/11/15 05:20:28;;;;;;;16.65;7.03;;;;;;;;;;5051916;28;20051;-65
2021/11/15 05:22:56;;;;;;;19.60;7.43;;;;;;;;;;5050962;28;20224;-65
2021/11/15 05:25:26;;;;;;;20.48;7.35;;;;;;;;;;5048542;28;20463;-65
2021/11/15 05:27:55;;;;;;;20.00;7.55;;;;;;;;;;5048849;28;20057;-64
2021/11/15 05:30:24;;;;;;;19.75;6.55;;;;;;;;;;5051549;28;20048;-64
2021/11/15 05:32:55;;;;;;;18.00;6.93;;;;;;;;;;5049576;28;20037;-64
2021/11/15 05:35:24;;;;;;;18.92;7.50;;;;;;;;;;5053374;28;20068;-64
2021/11/15 05:37:52;;;;;;;16.90;6.43;;;;;;;;;;5053190;28;20500;-64
2021/11/15 05:40:23;;;;;;;17.33;6.07;;;;;;;;;;5058643;28;20920;-64
2021/11/15 05:42:52;;;;;;;21.67;7.00;;;;;;;;;;5050305;28;20479;-63
2021/11/15 05:45:21;;;;;;;18.23;7.07;;;;;;;;;;5046553;28;20242;-63
2021/11/15 05:47:50;;;;;;;21.48;7.47;;;;;;;;;;5055818;28;20182;-65
2021/11/15 05:50:19;;;;;;;21.55;8.30;;;;;;;;;;5059865;28;20048;-64
2021/11/15 05:52:47;;;;;;;20.17;6.85;;;;;;;;;;5048294;28;20147;-64
2021/11/15 05:55:17;;;;;;;20.25;7.13;;;;;;;;;;5048192;28;20041;-64
2021/11/15 05:57:45;;;;;;;19.00;7.47;;;;;;;;;;5050007;28;20045;-64
2021/11/15 06:00:15;;;;;;;19.45;7.82;;;;;;;;;;5056835;28;20120;-64
2021/11/15 06:02:45;;;;;;;17.15;7.10;;;;;;;;;;5051718;28;20045;-64
2021/11/15 06:05:14;;;;;;;22.92;7.97;;;;;;;;;;5048164;28;20049;-63
2021/11/15 06:07:42;;;;;;;19.02;7.38;;;;;;;;;;5049197;28;20136;-64
2021/11/15 06:10:11;;;;;;;16.65;7.70;;;;;;;;;;5042350;28;20507;-64
2021/11/15 06:12:40;;;;;;;19.48;7.45;;;;;;;;;;5047974;28;20080;-64
2021/11/15 06:15:10;;;;;;;21.90;7.72;;;;;;;;;;5055244;28;20110;-64
2021/11/15 06:17:39;;;;;;;20.98;7.13;;;;;;;;;;5052994;28;20060;-64
2021/11/15 06:20:10;;;;;;;27.55;8.20;;;;;;;;;;5045698;28;20142;-66
2021/11/15 06:22:38;;;;;;;25.67;9.18;;;;;;;;;;5047991;28;20510;-64
2021/11/15 06:25:07;;;;;;;23.52;7.57;;;;;;;;;;5057622;28;20086;-64
2021/11/15 06:27:36;;;;;;;22.80;8.77;;;;;;;;;;5054302;28;20760;-64
2021/11/15 06:30:05;;;;;;;27.80;9.95;;;;;;;;;;5046035;28;20155;-64
2021/11/15 06:32:33;;;;;;;25.20;8.65;;;;;;;;;;5046029;28;20088;-63
2021/11/15 06:35:01;;;;;;;27.88;10.05;;;;;;;;;;5051443;28;20047;-66
2021/11/15 06:37:31;;;;;;;25.92;10.13;;;;;;;;;;5045243;28;20099;-64
2021/11/15 06:39:59;;;;;;;28.10;9.43;;;;;;;;;;5044695;28;20473;-63
2021/11/15 06:42:28;;;;;;;28.23;10.77;;;;;;;;;;5046168;28;20463;-64
2021/11/15 06:44:56;;;;;;;26.50;9.18;;;;;;;;;;5045776;28;20931;-65
2021/11/15 06:47:24;;;;;;;25.67;10.48;;;;;;;;;;5042298;28;20136;-64
2021/11/15 06:49:54;;;;;;;31.15;10.65;;;;;;;;;;5043181;28;20175;-64
2021/11/15 06:52:23;;;;;;;26.65;9.82;;;;;;;;;;5025994;28;20072;-64
2021/11/15 06:54:52;;;;;;;24.95;9.15;;;;;;;;;;5045470;28;20547;-64
2021/11/15 06:57:21;;;;;;;21.23;8.60;;;;;;;;;;5049859;28;20325;-64
2021/11/15 06:59:49;;;;;;;28.73;9.68;;;;;;;;;;5048706;28;20175;-63
2021/11/15 07:02:18;;;;;;;31.02;9.80;;;;;;;;;;5044213;28;20049;-65
2021/11/15 07:04:47;;;;;;;30.55;9.38;;;;;;;;;;5048757;28;20052;-66
2021/11/15 07:07:15;;;;;;;28.52;9.35;;;;;;;;;;5045293;28;20349;-64
2021/11/15 07:09:45;;;;;;;23.40;9.45;;;;;;;;;;5045990;28;20143;-66
2021/11/15 07:12:16;;;;;;;33.08;11.50;;;;;;;;;;5041115;28;20507;-64
2021/11/15 07:14:44;;;;;;;32.03;10.02;;;;;;;;;;5043951;28;20049;-65
2021/11/15 07:17:13;;;;;;;27.38;10.13;;;;;;;;;;5048308;28;20396;-64
2021/11/15 07:19:41;;;;;;;25.80;9.80;;;;;;;;;;5047475;28;20127;-66
2021/11/15 07:22:29;;;;;;;26.15;9.70;;;;;;;;;;5045689;28;20044;-65
2021/11/15 07:24:58;;;;;;;29.63;9.75;;;;;;;;;;5037207;28;20586;-64
2021/11/15 07:27:28;;;;;;;28.73;9.32;;;;;;;;;;5045718;28;20072;-64
2021/11/15 07:29:56;;;;;;;28.02;10.48;;;;;;;;;;5048335;28;20491;-64
2021/11/15 07:32:25;;;;;;;27.17;10.15;;;;;;;;;;5045666;28;20566;-64
2021/11/15 07:34:53;;;;;;;28.40;11.10;;;;;;;;;;5041191;28;20132;-66
2021/11/15 07:37:22;;;;;;;24.15;8.93;;;;;;;;;;5042094;28;20202;-64
2021/11/15 07:39:51;;;;;;;28.05;9.32;;;;;;;;;;5042340;28;20643;-65
2021/11/15 07:42:20;;;;;;;31.13;9.90;;;;;;;;;;5044520;28;20098;-64
2021/11/15 07:44:50;;;;;;;25.50;8.48;;;;;;;;;;5029194;28;20520;-67
2021/11/15 07:47:19;;;;;;;29.25;10.20;;;;;;;;;;5040874;28;20683;-65
2021/11/15 07:49:47;;;;;;;29.73;10.82;;;;;;;;;;5047521;28;20083;-64
2021/11/15 07:52:17;;;;;;;27.65;10.43;;;;;;;;;;5045096;28;20481;-65
2021/11/15 07:54:46;;;;;;;26.70;9.77;;;;;;;;;;5040845;28;20130;-64
2021/11/15 07:57:15;;;;;;;30.27;10.35;;;;;;;;;;5043327;28;20649;-64
2021/11/15 07:59:43;;;;;;;27.90;9.15;;;;;;;;;;5048237;28;20052;-65
2021/11/15 08:02:14;;;;;;;27.00;10.30;;;;;;;;;;5042696;28;20049;-64
2021/11/15 08:04:45;;;;;;;32.00;9.63;;;;;;;;;;5046448;28;20064;-64
2021/11/15 08:07:14;;;;;;;26.88;9.63;;;;;;;;;;5046956;28;20458;-64
2021/11/15 08:09:42;;;;;;;24.70;9.57;;;;;;;;;;5030783;28;20072;-64
2021/11/15 08:12:12;;;;;;;27.48;9.77;;;;;;;;;;5046219;28;20048;-65
2021/11/15 08:14:42;;;;;;;25.63;10.07;;;;;;;;;;5046759;28;20045;-65
2021/11/15 08:17:12;;;;;;;24.08;9.57;;;;;;;;;;5036866;28;20092;-64
2021/11/15 08:19:42;;;;;;;18.95;8.30;;;;;;;;;;5037251;28;20103;-66
2021/11/15 08:22:11;;;;;;;24.30;10.07;;;;;;;;;;5036593;28;20049;-64
2021/11/15 08:24:57;;;;;;;25.13;9.65;;;;;;;;;;5033036;28;20056;-67
2021/11/15 08:27:26;;;;;;;24.88;9.45;;;;;;;;;;5044454;28;20056;-65
2021/11/15 08:29:55;;;;;;;23.63;8.38;;;;;;;;;;5046908;28;20049;-64
2021/11/15 08:32:26;;;;;;;20.58;8.93;;;;;;;;;;5048412;28;20106;-66
2021/11/15 08:34:58;;;;;;;26.52;9.40;;;;;;;;;;5048669;28;20040;-64
2021/11/15 08:37:27;;;;;;;25.35;9.73;;;;;;;;;;5039101;28;20049;-64
2021/11/15 08:39:56;;;;;;;22.15;8.40;;;;;;;;;;5047750;28;20041;-64
2021/11/15 08:42:24;;;;;;;29.65;10.35;;;;;;;;;;5056962;28;20054;-64
2021/11/15 08:44:56;;;;;;;21.83;9.15;;;;;;;;;;5048985;28;20415;-64
2021/11/15 08:47:25;;;;;;;23.13;8.27;;;;;;;;;;5049054;28;20496;-64
2021/11/15 08:49:53;;;;;;;23.33;9.10;;;;;;;;;;5052795;28;20044;-64
2021/11/15 08:52:23;;;;;;;20.52;7.82;;;;;;;;;;5053805;28;20113;-64
2021/11/15 08:54:52;;;;;;;24.95;8.65;;;;;;;;;;5060199;28;20084;-64
2021/11/15 08:57:20;;;;;;;21.13;7.95;;;;;;;;;;5049551;28;20041;-64
2021/11/15 08:59:53;;;;;;;23.30;8.55;;;;;;;;;;5046828;28;20049;-64
2021/11/15 09:02:21;;;;;;;20.85;7.70;;;;;;;;;;5050409;28;20072;-64
2021/11/15 09:04:50;;;;;;;23.05;9.00;;;;;;;;;;5047344;28;20116;-64
2021/11/15 09:07:19;;;;;;;26.63;8.82;;;;;;;;;;5046232;28;20338;-64
2021/11/15 09:09:48;;;;;;;24.20;8.57;;;;;;;;;;5046016;28;20045;-65
2021/11/15 09:12:18;;;;;;;23.88;8.57;;;;;;;;;;5039053;28;20060;-64
2021/11/15 09:14:47;;;;;;;21.58;8.45;;;;;;;;;;5049284;28;20085;-65
2021/11/15 09:17:16;;;;;;;26.75;8.70;;;;;;;;;;5046232;28;20514;-64
2021/11/15 09:19:44;;;;;;;23.10;8.40;;;;;;;;;;5050238;28;20443;-67
2021/11/15 09:22:13;;;;;;;23.38;8.75;;;;;;;;;;5050321;28;20500;-64
2021/11/15 09:24:44;;;;;;;20.95;8.13;;;;;;;;;;5054273;28;20052;-64
2021/11/15 09:27:14;;;;;;;24.42;8.05;;;;;;;;;;5048747;28;20076;-64
2021/11/15 09:29:43;;;;;;;19.55;8.27;;;;;;;;;;5052870;28;20510;-64
2021/11/15 09:32:13;;;;;;;20.08;8.52;;;;;;;;;;5056261;28;20149;-65
2021/11/15 09:34:42;;;;;;;21.00;8.55;;;;;;;;;;5046762;28;20053;-65
2021/11/15 09:37:11;;;;;;;17.95;7.45;;;;;;;;;;5046228;28;20167;-64
2021/11/15 09:39:40;;;;;;;15.35;7.18;;;;;;;;;;5050023;28;20061;-64
2021/11/15 09:42:09;;;;;;;20.15;7.85;;;;;;;;;;5043103;28;20110;-64
2021/11/15 09:44:44;;;;;;;19.25;7.50;;;;;;;;;;5049860;28;20079;-65
2021/11/15 09:47:14;;;;;;;20.52;7.63;;;;;;;;;;5045459;28;20107;-64
2021/11/15 09:49:42;;;;;;;23.48;8.10;;;;;;;;;;5050016;28;20052;-65
2021/11/15 09:52:12;;;;;;;23.52;7.68;;;;;;;;;;5049524;28;20164;-66
2021/11/15 09:54:40;;;;;;;20.90;8.13;;;;;;;;;;5049706;28;20052;-65
2021/11/15 09:57:29;;;;;;;19.75;6.95;;;;;;;;;;5046689;28;20242;-65
2021/11/15 10:00:04;;;;;;;23.52;8.45;;;;;;;;;;5049464;28;20037;-65
2021/11/15 10:02:33;;;;;;;17.25;6.75;;;;;;;;;;5047811;28;20110;-65
2021/11/15 10:05:02;;;;;;;21.95;8.35;;;;;;;;;;5051737;28;20059;-64
2021/11/15 10:07:37;;;;;;;20.30;7.95;;;;;;;;;;5048225;28;20055;-67
2021/11/15 10:10:24;;;;;;;21.67;7.60;;;;;;;;;;5046974;28;20118;-65
2021/11/15 10:13:03;;;;;;;21.10;8.27;;;;;;;;;;5055949;28;21503;-65
2021/11/15 10:15:44;;;;;;;22.88;7.95;;;;;;;;;;5052258;28;20128;-65
2021/11/15 10:18:13;;;;;;;20.30;6.95;;;;;;;;;;5043438;28;20051;-65
2021/11/15 10:20:46;;;;;;;22.80;8.18;;;;;;;;;;5053852;28;20073;-65
2021/11/15 10:23:27;;;;;;;20.20;6.72;;;;;;;;;;5049473;28;20430;-64
2021/11/15 10:25:59;;;;;;;20.15;8.60;;;;;;;;;;5053234;28;20488;-64
2021/11/15 10:28:30;;;;;;;24.00;7.97;;;;;;;;;;5045229;28;20044;-66
2021/11/15 10:31:00;;;;;;;25.50;7.90;;;;;;;;;;5052897;28;20062;-65
2021/11/15 10:33:40;;;;;;;20.50;7.88;;;;;;;;;;5055785;28;20166;-65
2021/11/15 10:36:09;;;;;;;17.52;7.55;;;;;;;;;;5048243;28;20084;-65
2021/11/15 10:38:43;;;;;;;22.95;9.25;;;;;;;;;;5048790;28;20049;-64
2021/11/15 10:41:13;;;;;;;23.15;7.47;;;;;;;;;;5049740;28;20052;-65
2021/11/15 10:43:41;;;;;;;19.25;7.05;;;;;;;;;;5042626;28;20060;-65
2021/11/15 10:46:28;;;;;;;22.35;8.75;;;;;;;;;;5050707;28;20060;-65
2021/11/15 10:48:58;;;;;;;23.13;7.35;;;;;;;;;;5049924;28;20053;-65
2021/11/15 10:51:46;;;;;;;23.42;8.35;;;;;;;;;;5045406;28;20115;-65
2021/11/15 10:54:34;;;;;;;22.27;8.38;;;;;;;;;;5049567;28;20102;-66
2021/11/15 10:57:17;;;;;;;23.80;7.85;;;;;;;;;;5049017;28;20041;-65
2021/11/15 10:59:46;;;;;;;22.73;8.07;;;;;;;;;;5038950;28;20402;-68
2021/11/15 11:02:29;;;;;;;19.13;7.30;;;;;;;;;;5052468;28;20037;-65
2021/11/15 11:05:08;;;;;;;25.30;9.38;;;;;;;;;;5051215;28;20049;-64
2021/11/15 11:07:36;;;;;;;21.33;7.45;;;;;;;;;;5050730;28;20080;-65
2021/11/15 11:10:05;;;;;;;26.13;9.68;;;;;;;;;;5055446;28;20053;-64
2021/11/15 11:12:39;;;;;;;23.02;8.82;;;;;;;;;;5049984;28;20057;-65
2021/11/15 11:15:20;;;;;;;26.05;9.30;;;;;;;;;;5048864;28;20129;-64
2021/11/15 11:17:58;;;;;;;23.92;9.20;;;;;;;;;;5040147;28;20052;-66
2021/11/15 11:20:32;;;;;;;25.48;8.20;;;;;;;;;;5047965;28;20094;-66
2021/11/15 11:23:20;;;;;;;23.23;8.53;;;;;;;;;;5047573;28;20076;-65
2021/11/15 11:25:49;;;;;;;21.45;8.00;;;;;;;;;;5046862;28;20303;-67
2021/11/15 11:28:31;;;;;;;20.83;8.80;;;;;;;;;;5048891;28;20103;-64
2021/11/15 11:31:01;;;;;;;24.75;9.63;;;;;;;;;;5052239;28;20128;-65
2021/11/15 11:33:31;;;;;;;27.60;9.55;;;;;;;;;;5045620;28;20512;-64
2021/11/15 11:36:01;;;;;;;27.67;9.75;;;;;;;;;;5049414;28;20079;-66
2021/11/15 11:38:29;;;;;;;26.15;9.52;;;;;;;;;;5062609;28;20503;-65
2021/11/15 11:40:58;;;;;;;28.60;10.50;;;;;;;;;;5047333;28;20557;-64
2021/11/15 11:43:27;;;;;;;28.23;10.10;;;;;;;;;;5047484;28;20126;-67
2021/11/15 11:45:56;;;;;;;29.48;10.52;;;;;;;;;;5049324;28;20052;-64
2021/11/15 11:48:25;;;;;;;25.95;9.32;;;;;;;;;;5053471;28;20144;-65
2021/11/15 11:50:56;;;;;;;30.70;9.18;;;;;;;;;;5048436;28;20049;-67
2021/11/15 11:53:26;;;;;;;26.13;9.07;;;;;;;;;;5043690;28;20044;-64
2021/11/15 11:55:54;;;;;;;25.52;9.82;;;;;;;;;;5046495;28;20382;-65
2021/11/15 11:58:24;;;;;;;23.98;9.15;;;;;;;;;;5047315;28;20052;-64
2021/11/15 12:00:53;;;;;;;22.17;8.90;;;;;;;;;;5058576;28;20145;-64
2021/11/15 12:03:23;;;;;;;28.77;9.80;;;;;;;;;;5047376;28;20045;-65
2021/11/15 12:05:52;;;;;;;21.88;8.25;;;;;;;;;;5046144;28;20073;-65
2021/11/15 12:08:41;;;;;;;24.75;9.10;;;;;;;;;;5046136;28;20488;-67
2021/11/15 12:11:23;;;;;;;25.55;9.48;;;;;;;;;;5042754;28;20080;-65
2021/11/15 12:13:51;;;;;;;23.92;9.18;;;;;;;;;;5050114;28;20055;-65
2021/11/15 12:16:20;;;;;;;23.65;8.90;;;;;;;;;;5045827;28;20106;-67
2021/11/15 12:18:54;;;;;;;26.98;9.93;;;;;;;;;;5047774;28;20146;-64
2021/11/15 12:21:23;;;;;;;26.83;9.85;;;;;;;;;;5062318;28;20049;-64
2021/11/15 12:24:15;;;;;;;24.35;9.55;;;;;;;;;;5050897;28;20567;-65
2021/11/15 12:26:47;;;;;;;20.58;8.27;;;;;;;;;;5035477;28;20549;-65
2021/11/15 12:29:18;;;;;;;20.60;8.25;;;;;;;;;;5043702;28;20036;-64
2021/11/15 12:31:48;;;;;;;20.08;7.47;;;;;;;;;;5043102;28;20044;-65
2021/11/15 12:34:18;;;;;;;23.52;8.52;;;;;;;;;;5052645;28;20048;-67
2021/11/15 12:36:49;;;;;;;20.63;7.95;;;;;;;;;;5043131;28;20515;-65
2021/11/15 12:39:19;;;;;;;21.73;9.07;;;;;;;;;;5035885;28;20554;-65
2021/11/15 12:41:51;;;;;;;22.13;8.93;;;;;;;;;;5049041;28;20045;-65
2021/11/15 12:44:30;;;;;;;29.27;9.35;;;;;;;;;;5039425;28;20048;-64
2021/11/15 12:47:01;;;;;;;26.25;9.65;;;;;;;;;;5047049;28;20049;-64
2021/11/15 12:49:35;;;;;;;25.25;8.73;;;;;;;;;;5046209;28;20477;-64
2021/11/15 12:52:20;;;;;;;19.50;7.53;;;;;;;;;;5042855;28;20064;-65
2021/11/15 12:54:51;;;;;;;19.05;8.32;;;;;;;;;;5048021;28;20044;-64
2021/11/15 12:57:35;;;;;;;18.02;7.63;;;;;;;;;;5047714;28;20048;-65
2021/11/15 13:00:06;;;;;;;22.58;8.48;;;;;;;;;;5035086;28;20045;-66
2021/11/15 13:02:35;;;;;;;21.05;7.65;;;;;;;;;;5046432;28;20044;-64
2021/11/15 13:05:05;;;;;;;26.17;8.82;;;;;;;;;;5045551;28;20090;-66
2021/11/15 13:07:34;;;;;;;17.50;8.05;;;;;;;;;;5049813;28;20523;-66
2021/11/15 13:10:02;;;;;;;23.88;8.73;;;;;;;;;;5053056;28;20489;-65
2021/11/15 13:12:32;;;;;;;21.25;8.27;;;;;;;;;;5048736;28;20083;-64
2021/11/15 13:15:02;;;;;;;22.90;9.10;;;;;;;;;;5047209;28;20100;-65
2021/11/15 13:17:31;;;;;;;29.42;8.70;;;;;;;;;;5046005;28;20051;-66
2021/11/15 13:20:03;;;;;;;26.55;9.68;;;;;;;;;;5048099;28;20061;-64
2021/11/15 13:22:32;;;;;;;25.17;8.45;;;;;;;;;;5048301;28;20045;-68
2021/11/15 13:25:01;;;;;;;25.63;8.98;;;;;;;;;;5042700;28;20110;-65
2021/11/15 13:27:30;;;;;;;21.42;7.90;;;;;;;;;;5047684;28;20041;-64
2021/11/15 13:30:00;;;;;;;27.50;9.55;;;;;;;;;;5039284;28;20055;-64
2021/11/15 13:32:30;;;;;;;24.67;9.38;;;;;;;;;;5049888;28;20114;-65
2021/11/15 13:34:59;;;;;;;24.30;9.05;;;;;;;;;;5053063;28;20051;-65
2021/11/15 13:37:27;;;;;;;29.38;9.95;;;;;;;;;;5052332;28;20128;-64
2021/11/15 13:39:56;;;;;;;25.67;9.65;;;;;;;;;;5050777;28;20095;-66
2021/11/15 13:42:26;;;;;;;26.48;8.52;;;;;;;;;;5042351;28;20138;-65
2021/11/15 13:44:55;;;;;;;27.42;9.40;;;;;;;;;;5054302;28;20055;-64
2021/11/15 13:47:25;;;;;;;24.95;8.90;;;;;;;;;;5053676;28;20539;-65
2021/11/15 13:49:55;;;;;;;27.42;8.82;;;;;;;;;;5053530;28;20037;-65
2021/11/15 13:52:27;;;;;;;28.33;9.43;;;;;;;;;;5056081;28;20060;-65
2021/11/15 13:54:56;;;;;;;25.80;9.30;;;;;;;;;;5053376;28;20140;-65
2021/11/15 13:57:28;;;;;;;23.45;10.10;;;;;;;;;;5049439;28;20040;-65
2021/11/15 13:59:57;;;;;;;27.30;9.77;;;;;;;;;;5053269;28;20099;-65
2021/11/15 14:02:26;;;;;;;27.08;9.70;;;;;;;;;;5055979;28;20449;-65
2021/11/15 14:04:56;;;;;;;31.50;10.20;;;;;;;;;;5055102;28;20096;-65
2021/11/15 14:07:26;;;;;;;29.25;9.95;;;;;;;;;;5056565;28;20048;-65
2021/11/15 14:09:55;;;;;;;28.10;10.02;;;;;;;;;;5051869;28;20048;-65
2021/11/15 14:12:23;;;;;;;25.80;9.15;;;;;;;;;;5047725;28;20064;-65
2021/11/15 14:14:52;;;;;;;26.98;9.93;;;;;;;;;;5048982;28;20139;-64
2021/11/15 14:17:23;;;;;;;26.90;9.88;;;;;;;;;;5050327;28;20123;-65
2021/11/15 14:19:52;;;;;;;27.98;9.93;;;;;;;;;;5054584;28;20063;-65
2021/11/15 14:22:23;;;;;;;29.65;10.27;;;;;;;;;;5070680;28;20415;-65
2021/11/15 14:24:52;;;;;;;27.63;9.52;;;;;;;;;;5051915;28;20360;-65
2021/11/15 14:27:21;;;;;;;28.42;10.15;;;;;;;;;;5048549;28;20053;-66
2021/11/15 14:29:50;;;;;;;34.35;10.43;;;;;;;;;;5049091;28;20131;-65
2021/11/15 14:32:23;;;;;;;37.25;12.85;;;;;;;;;;5059700;28;20114;-65
2021/11/15 14:34:52;;;;;;;35.00;12.10;;;;;;;;;;5058233;28;20118;-66
2021/11/15 14:37:22;;;;;;;33.60;11.57;;;;;;;;;;5050208;28;20037;-65
2021/11/15 14:39:51;;;;;;;35.75;11.63;;;;;;;;;;5047992;28;20049;-66
2021/11/15 14:42:21;;;;;;;34.15;11.45;;;;;;;;;;5044472;28;20049;-65